Decoded Metar for KFDW (FAIRFIELD COUNTY AIRPORT in SC, USA) (IATA:N/A) | Meteo·Mobile Aviation Weather
aviador You're here:

KFDW Decoded Metar

FAIRFIELD COUNTY AIRPORT in SC, USA
Report Time2018-10-20 13:15:00
UTC Time2018-10-20 13:14:50
Flight Rules vfr VFR
Wind220° at 05 kt
W.Decomp.*RWY 22: 5.0 kt HW 0.6 kt RCW
W.Rank220° ranks 3
Current wind is below 220° avg. (5.6)
Visibility9999 m
Phenomena:N/A
Clouds:Scattered 021 Hf
Expected CloudBase > 400 ft AGL from Temp-Dew spread
CeilingNone
Temp17°C (ISA +3)
Dew Point16°C (94% RH)
QNH1015 hPa
Density Alt1,125 ft
Elevation577 ft
Report Wrong Elevation
Raw Report
METAR KFDW 201315Z AUTO 22005KT 10SM SCT021 17/16 A2997 RMK AO1=

Extra information for KFDW:More info

Metar Taf Metar & Taf Last 4 Metars F.Rules Stats Wind Profile Meteogram Temp Stats Airport Information Weather charts Add Link Nearby VenuesMetar ALERT Operation Metar Decoded Social comments

AIRNAV info for KFDW